Time;durP1;ratioP1;P1;durP2;ratioP2;P2;SDS_P1;SDS_P2;PMS_P1;PMS_P2;Temp;Humidity;BMP_temperature;BMP_pressure;BME280_temperature;BME280_humidity;BME280_pressure;Samples;Min_cycle;Max_cycle;Signal;HPM_P1;HPM_P2
2022/10/06 00:01:47;;;;;;;6.40;2.35;;;;;;;19.80;55.14;101406.97;5031546;28;96891;-68
2022/10/06 00:04:14;;;;;;;2.45;2.05;;;;;;;19.62;55.58;101417.03;5032481;27;98892;-67
2022/10/06 00:06:40;;;;;;;4.32;2.70;;;;;;;19.54;55.79;101415.78;5032403;27;99089;-69
2022/10/06 00:09:06;;;;;;;10.85;2.70;;;;;;;19.52;55.95;101418.56;5033045;27;96702;-67
2022/10/06 00:11:34;;;;;;;2.83;2.08;;;;;;;19.49;56.06;101416.91;5026274;27;97060;-69
2022/10/06 00:14:01;;;;;;;5.65;2.80;;;;;;;19.41;56.46;101412.97;5022261;27;99460;-68
2022/10/06 00:16:28;;;;;;;6.45;2.55;;;;;;;19.53;56.04;101416.72;5025601;27;100669;-68
2022/10/06 00:18:55;;;;;;;3.60;2.60;;;;;;;19.55;56.37;101422.88;5028495;28;96870;-68
2022/10/06 00:21:22;;;;;;;4.03;2.15;;;;;;;19.54;56.15;101431.88;5026147;27;97261;-68
2022/10/06 00:23:48;;;;;;;6.50;2.78;;;;;;;19.59;56.24;101432.44;5025876;28;99007;-67
2022/10/06 00:26:16;;;;;;;3.47;2.40;;;;;;;19.57;56.30;101437.03;5024666;28;98889;-67
2022/10/06 00:28:43;;;;;;;3.33;2.78;;;;;;;19.70;56.00;101437.97;5024733;28;98602;-66
2022/10/06 00:31:11;;;;;;;4.40;2.50;;;;;;;19.50;56.37;101440.06;5025029;28;96887;-66
2022/10/06 00:33:37;;;;;;;6.70;2.60;;;;;;;19.63;56.23;101439.31;5026332;28;99131;-67
2022/10/06 00:36:04;;;;;;;7.35;2.70;;;;;;;19.75;55.97;101442.13;5029970;27;99102;-65
2022/10/06 00:38:30;;;;;;;7.95;2.60;;;;;;;19.87;55.60;101440.47;5030638;28;96750;-68
2022/10/06 00:40:56;;;;;;;5.63;3.17;;;;;;;19.95;55.59;101435.50;5027961;28;98769;-67
2022/10/06 00:43:45;;;;;;;4.65;2.80;;;;;;;19.93;55.83;101441.91;5028712;28;99477;-66
2022/10/06 00:46:17;;;;;;;4.05;2.40;;;;;;;20.05;55.10;101449.16;5030899;27;99330;-66
2022/10/06 00:48:46;;;;;;;4.28;2.65;;;;;;;20.00;55.34;101460.19;5026595;28;96999;-66
2022/10/06 00:51:13;;;;;;;5.57;3.05;;;;;;;20.01;55.29;101447.66;5026609;28;97183;-66
2022/10/06 00:53:40;;;;;;;3.90;2.70;;;;;;;20.05;55.49;101452.72;5031884;28;99610;-66
2022/10/06 00:56:06;;;;;;;5.72;2.10;;;;;;;20.16;54.88;101443.97;5028827;28;100784;-66
2022/10/06 00:58:33;;;;;;;3.33;2.22;;;;;;;20.16;55.13;101449.34;5029271;28;98142;-66
2022/10/06 01:00:59;;;;;;;4.95;2.45;;;;;;;20.17;54.93;101457.28;5030044;28;97694;-66
2022/10/06 01:03:31;;;;;;;2.70;2.10;;;;;;;20.15;55.23;101458.38;5029560;28;102615;-66
2022/10/06 01:06:00;;;;;;;8.15;2.40;;;;;;;20.17;55.17;101459.97;5030813;28;99125;-67
2022/10/06 01:08:28;;;;;;;4.63;2.45;;;;;;;20.21;54.88;101460.66;5033203;28;97085;-66
2022/10/06 01:10:54;;;;;;;6.47;2.67;;;;;;;20.48;54.56;101466.94;5030046;27;96738;-66
2022/10/06 01:13:21;;;;;;;4.68;2.38;;;;;;;20.45;54.54;101471.66;5025853;28;98912;-66
2022/10/06 01:15:55;;;;;;;9.30;2.45;;;;;;;20.37;54.35;101466.78;5025059;28;99345;-66
2022/10/06 01:18:25;;;;;;;3.30;2.15;;;;;;;20.38;54.71;101471.19;5025708;28;97156;-67
2022/10/06 01:21:00;;;;;;;6.55;2.08;;;;;;;20.33;54.56;101461.72;5026259;27;97135;-66
2022/10/06 01:23:30;;;;;;;5.55;2.22;;;;;;;20.38;54.42;101462.28;5026495;28;98963;-66
2022/10/06 01:25:58;;;;;;;4.15;2.00;;;;;;;20.28;54.71;101464.69;5024868;28;98969;-67
2022/10/06 01:28:25;;;;;;;3.40;2.30;;;;;;;20.34;54.75;101474.19;5025307;27;98489;-67
2022/10/06 01:30:53;;;;;;;2.97;2.40;;;;;;;20.37;54.78;101468.59;5026231;27;97379;-67
2022/10/06 01:33:21;;;;;;;4.88;2.00;;;;;;;20.28;54.71;101470.88;5024672;28;99501;-67
2022/10/06 01:35:49;;;;;;;5.55;2.13;;;;;;;20.24;55.10;101472.03;5023699;28;99199;-67
2022/10/06 01:38:17;;;;;;;2.92;2.20;;;;;;;20.27;55.07;101482.59;5026483;28;97277;-68
2022/10/06 01:40:45;;;;;;;2.83;2.00;;;;;;;20.42;54.47;101480.75;5024848;27;98360;-67
2022/10/06 01:43:12;;;;;;;2.20;1.90;;;;;;;20.29;54.69;101479.78;5030920;28;99516;-67
2022/10/06 01:45:38;;;;;;;3.67;2.10;;;;;;;20.32;54.89;101482.28;5029072;28;99313;-66
2022/10/06 01:48:06;;;;;;;7.68;2.53;;;;;;;20.05;55.42;101474.19;5029023;27;96779;-66
2022/10/06 01:50:32;;;;;;;3.05;2.10;;;;;;;20.03;55.61;101480.59;5029188;28;97703;-66
2022/10/06 01:52:59;;;;;;;3.58;2.10;;;;;;;20.19;55.39;101479.53;5030689;28;99796;-67
2022/10/06 01:55:26;;;;;;;5.00;2.15;;;;;;;20.10;55.44;101473.88;5027809;28;98175;-66
2022/10/06 01:57:53;;;;;;;2.55;2.10;;;;;;;20.20;54.92;101481.25;5031694;28;96780;-66
2022/10/06 02:00:20;;;;;;;6.13;1.92;;;;;;;19.92;56.04;101483.09;5025332;27;96939;-67
2022/10/06 02:02:46;;;;;;;7.00;2.50;;;;;;;20.01;56.05;101483.41;5030057;28;99372;-67
2022/10/06 02:05:13;;;;;;;2.60;2.20;;;;;;;20.12;55.64;101482.69;5029318;28;98979;-67
2022/10/06 02:07:40;;;;;;;3.28;2.55;;;;;;;20.03;55.68;101476.09;5028776;28;97211;-67
2022/10/06 02:10:07;;;;;;;7.50;2.45;;;;;;;20.05;55.88;101479.53;5028950;27;97916;-67
2022/10/06 02:12:34;;;;;;;2.15;1.95;;;;;;;20.06;55.62;101473.22;5024977;27;99351;-67
2022/10/06 02:15:01;;;;;;;7.55;2.25;;;;;;;19.89;56.30;101485.00;5024263;28;98177;-66
2022/10/06 02:17:28;;;;;;;3.20;2.20;;;;;;;20.02;55.98;101482.41;5025245;28;98226;-67
2022/10/06 02:19:54;;;;;;;6.65;2.42;;;;;;;20.10;55.96;101489.97;5025098;28;96881;-67
2022/10/06 02:22:21;;;;;;;2.40;2.20;;;;;;;20.09;55.74;101497.16;5026939;28;99088;-67
2022/10/06 02:24:47;;;;;;;4.75;2.03;;;;;;;20.14;55.52;101495.06;5025478;27;99333;-67
2022/10/06 02:27:13;;;;;;;3.58;2.53;;;;;;;20.23;55.71;101505.19;5026158;28;97343;-67
2022/10/06 02:29:40;;;;;;;4.30;2.63;;;;;;;20.12;55.97;101499.66;5024068;27;97185;-67
2022/10/06 02:32:07;;;;;;;5.28;2.55;;;;;;;20.18;55.68;101507.31;5024421;27;98113;-66
2022/10/06 02:34:34;;;;;;;3.97;2.38;;;;;;;20.15;56.18;101498.63;5023952;28;98987;-66
2022/10/06 02:37:00;;;;;;;3.92;2.33;;;;;;;20.01;56.76;101509.34;5025894;27;97862;-66
2022/10/06 02:39:27;;;;;;;3.55;2.17;;;;;;;20.08;56.24;101508.00;5026900;28;97155;-66
2022/10/06 02:41:53;;;;;;;3.65;2.72;;;;;;;20.10;56.30;101509.63;5024684;27;99159;-66
2022/10/06 02:44:20;;;;;;;5.70;2.30;;;;;;;20.01;56.66;101507.53;5026613;27;99091;-66
2022/10/06 02:46:48;;;;;;;2.97;2.60;;;;;;;19.92;57.04;101508.09;5023042;28;98736;-66
2022/10/06 02:49:16;;;;;;;9.07;2.50;;;;;;;19.86;57.39;101514.72;5022599;28;98732;-67
2022/10/06 02:51:42;;;;;;;4.60;2.53;;;;;;;19.83;57.20;101519.38;5023124;28;101292;-66
2022/10/06 02:54:08;;;;;;;5.40;2.50;;;;;;;20.00;56.85;101529.94;5023097;27;98855;-67
2022/10/06 02:56:36;;;;;;;5.50;2.28;;;;;;;20.08;56.55;101522.28;5025664;27;96837;-69
2022/10/06 02:59:03;;;;;;;3.53;2.50;;;;;;;20.09;56.61;101524.00;5023350;27;97609;-66
2022/10/06 03:01:30;;;;;;;3.25;2.42;;;;;;;20.03;56.96;101524.38;5027458;28;99173;-67
2022/10/06 03:03:56;;;;;;;5.93;2.70;;;;;;;20.19;56.43;101535.03;5028942;27;99400;-67
2022/10/06 03:06:25;;;;;;;5.78;2.20;;;;;;;20.04;56.79;101531.47;5026537;27;97404;-67
2022/10/06 03:08:53;;;;;;;5.45;2.70;;;;;;;20.33;56.32;101540.41;5029804;28;98752;-67
2022/10/06 03:11:22;;;;;;;5.03;2.38;;;;;;;20.15;56.35;101550.44;5026546;27;98900;-67
2022/10/06 03:13:50;;;;;;;7.70;2.50;;;;;;;20.34;56.13;101549.31;5025238;28;98914;-67
2022/10/06 03:16:18;;;;;;;4.57;2.45;;;;;;;20.23;56.63;101549.94;5027901;28;98504;-67
2022/10/06 03:18:45;;;;;;;2.70;2.08;;;;;;;20.05;56.72;101549.28;5027514;28;99031;-68
2022/10/06 03:21:12;;;;;;;3.78;2.35;;;;;;;20.33;55.99;101558.34;5028987;28;98947;-67
2022/10/06 03:23:40;;;;;;;3.05;2.03;;;;;;;20.40;55.67;101562.34;5025363;27;99223;-67
2022/10/06 03:26:06;;;;;;;4.90;2.50;;;;;;;20.46;55.74;101575.38;5027800;28;97768;-66
2022/10/06 03:28:33;;;;;;;3.08;2.10;;;;;;;20.04;56.69;101576.22;5027915;27;97748;-66
2022/10/06 03:31:02;;;;;;;4.30;2.58;;;;;;;20.27;56.30;101581.88;5028790;28;98427;-68
2022/10/06 03:33:29;;;;;;;5.22;2.40;;;;;;;20.30;56.26;101589.72;5028088;28;99021;-66
2022/10/06 03:35:59;;;;;;;3.10;2.20;;;;;;;20.23;56.46;101595.56;5024209;28;97296;-66
2022/10/06 03:38:26;;;;;;;3.53;1.95;;;;;;;20.26;56.34;101600.75;5028444;27;97332;-66
2022/10/06 03:41:02;;;;;;;6.57;2.55;;;;;;;20.28;56.54;101615.78;5026566;28;100359;-66
2022/10/06 03:43:28;;;;;;;3.72;2.22;;;;;;;20.30;56.92;101616.56;5027016;28;99063;-67
2022/10/06 03:45:55;;;;;;;5.65;2.50;;;;;;;20.32;57.30;101621.00;5026861;27;98438;-65
2022/10/06 03:48:22;;;;;;;2.53;2.05;;;;;;;20.01;58.23;101630.94;5027743;28;97576;-66
2022/10/06 03:50:54;;;;;;;3.17;1.85;;;;;;;20.00;58.79;101637.25;5028976;27;99383;-67
2022/10/06 03:53:24;;;;;;;4.20;2.15;;;;;;;19.84;59.61;101647.16;5030910;27;99629;-67
2022/10/06 03:55:51;;;;;;;2.92;1.73;;;;;;;19.82;59.31;101649.09;5032004;27;97598;-66
2022/10/06 03:58:18;;;;;;;3.70;2.33;;;;;;;19.92;59.23;101650.25;5032216;27;98663;-67
2022/10/06 04:00:45;;;;;;;3.03;1.73;;;;;;;20.15;58.52;101651.56;5031650;27;98889;-67
2022/10/06 04:03:12;;;;;;;3.97;2.15;;;;;;;20.03;58.69;101657.66;5034218;27;98928;-67
2022/10/06 04:05:38;;;;;;;4.68;1.75;;;;;;;20.18;58.27;101672.81;5032109;27;97006;-67
2022/10/06 04:08:05;;;;;;;3.00;1.90;;;;;;;20.19;57.86;101680.78;5033989;28;96786;-66
2022/10/06 04:10:32;;;;;;;5.43;1.92;;;;;;;20.04;57.93;101675.47;5027932;27;99344;-66
2022/10/06 04:12:59;;;;;;;1.83;1.55;;;;;;;20.13;57.77;101681.16;5031281;28;97617;-67
2022/10/06 04:15:27;;;;;;;5.05;1.80;;;;;;;20.29;57.49;101683.75;5028182;27;97257;-66
2022/10/06 04:17:54;;;;;;;4.63;1.67;;;;;;;20.24;57.44;101715.38;5024195;27;97304;-67
2022/10/06 04:20:20;;;;;;;3.58;1.80;;;;;;;20.20;57.44;101706.66;5028456;27;99462;-67
2022/10/06 04:22:47;;;;;;;2.20;1.88;;;;;;;20.20;57.20;101713.84;5025763;27;98744;-66
2022/10/06 04:25:13;;;;;;;1.90;1.58;;;;;;;20.29;56.43;101726.69;5026630;27;96837;-67
2022/10/06 04:27:39;;;;;;;3.65;1.35;;;;;;;20.18;55.47;101722.00;5025398;27;96990;-67
2022/10/06 04:30:06;;;;;;;4.68;1.60;;;;;;;20.34;54.60;101721.97;5025620;27;98060;-67
2022/10/06 04:32:34;;;;;;;2.38;1.15;;;;;;;20.18;54.42;101713.06;5026741;27;98099;-67
2022/10/06 04:35:00;;;;;;;1.38;0.90;;;;;;;19.80;53.07;101718.91;5027178;28;97582;-67
2022/10/06 04:37:27;;;;;;;1.63;1.02;;;;;;;19.40;52.05;101711.41;5031118;28;97357;-67
2022/10/06 04:39:54;;;;;;;1.83;0.80;;;;;;;18.81;53.97;101720.94;5032009;27;98917;-67
2022/10/06 04:42:20;;;;;;;2.60;0.80;;;;;;;19.20;52.62;101720.56;5029039;27;97806;-66
2022/10/06 04:44:46;;;;;;;2.38;0.80;;;;;;;19.65;50.80;101737.69;5030793;27;96935;-65
2022/10/06 04:47:13;;;;;;;0.95;0.63;;;;;;;19.75;49.70;101749.63;5030958;27;96880;-66
2022/10/06 04:49:40;;;;;;;0.50;0.50;;;;;;;19.71;50.38;101754.28;5032745;28;98269;-67
2022/10/06 04:52:07;;;;;;;2.17;0.50;;;;;;;19.67;50.37;101751.88;5028621;27;99178;-67
2022/10/06 04:54:33;;;;;;;1.85;0.50;;;;;;;19.87;50.15;101748.91;5029439;27;96699;-66
2022/10/06 04:56:59;;;;;;;1.92;0.88;;;;;;;19.97;50.09;101747.41;5026755;28;97089;-66
2022/10/06 05:00:21;;;;;;;3.03;1.15;;;;;;;19.82;50.27;101761.72;5026486;27;99213;-66
2022/10/06 05:02:12;;;;;;;0.50;0.50;;;;;;;19.80;49.83;101763.63;5025736;28;97583;-66
2022/10/06 05:04:40;;;;;;;2.22;0.60;;;;;;;19.59;50.58;101770.22;5031183;28;97122;-66
2022/10/06 05:07:07;;;;;;;2.92;1.02;;;;;;;19.86;49.24;101771.31;5028901;27;96830;-66
2022/10/06 05:09:33;;;;;;;0.38;0.38;;;;;;;19.19;50.37;101772.41;5025588;28;99543;-66
2022/10/06 05:11:59;;;;;;;2.25;0.90;;;;;;;19.17;50.49;101792.19;5025277;27;99104;-66
2022/10/06 05:14:25;;;;;;;1.20;0.43;;;;;;;19.42;49.50;101790.78;5024683;27;98606;-66
2022/10/06 05:16:52;;;;;;;3.78;0.60;;;;;;;19.19;49.31;101803.69;5028873;27;96912;-67
2022/10/06 05:19:18;;;;;;;18.30;0.90;;;;;;;19.62;48.32;101805.78;5031451;27;99061;-67
2022/10/06 05:21:46;;;;;;;42.08;3.15;;;;;;;19.73;47.01;101810.53;5024402;27;99079;-67
2022/10/06 05:24:12;;;;;;;0.68;0.30;;;;;;;19.19;47.46;101817.09;5029479;28;97466;-67
2022/10/06 05:26:39;;;;;;;4.95;0.50;;;;;;;19.04;47.88;101830.38;5027870;28;96776;-66
2022/10/06 05:29:05;;;;;;;0.95;0.32;;;;;;;18.98;48.13;101830.69;5030898;28;98273;-66
2022/10/06 05:31:33;;;;;;;5.47;0.70;;;;;;;19.12;48.19;101838.00;5030319;28;98859;-66
2022/10/06 05:34:00;;;;;;;6.13;0.50;;;;;;;19.22;48.25;101847.28;5024351;27;98379;-67
2022/10/06 05:36:29;;;;;;;1.90;0.50;;;;;;;19.17;48.38;101843.97;5030966;27;97685;-66
2022/10/06 05:38:57;;;;;;;1.48;0.30;;;;;;;19.38;48.31;101858.88;5029031;27;101299;-67
2022/10/06 05:41:27;;;;;;;1.35;0.40;;;;;;;19.79;47.81;101863.81;5030538;28;97514;-66
2022/10/06 05:43:54;;;;;;;2.47;0.60;;;;;;;19.60;47.75;101881.88;5024131;27;96810;-66
2022/10/06 05:46:23;;;;;;;0.45;0.32;;;;;;;19.73;47.51;101885.59;5027925;28;98254;-67
2022/10/06 05:48:51;;;;;;;2.42;0.52;;;;;;;19.49;47.71;101891.34;5022526;27;98452;-67
2022/10/06 05:51:19;;;;;;;3.42;0.57;;;;;;;19.04;48.42;101904.50;5024688;28;98993;-66
2022/10/06 05:53:47;;;;;;;1.58;0.40;;;;;;;18.83;48.94;101917.22;5029455;28;96784;-66
2022/10/06 05:56:18;;;;;;;1.08;0.40;;;;;;;18.87;49.15;101921.47;5028330;27;97310;-66
2022/10/06 05:58:46;;;;;;;3.72;0.40;;;;;;;18.64;49.38;101925.28;5031257;28;99055;-66
2022/10/06 06:01:14;;;;;;;41.10;1.90;;;;;;;18.74;49.16;101938.22;5030683;28;99556;-66
2022/10/06 06:03:42;;;;;;;6.22;1.02;;;;;;;18.84;49.00;101942.19;5030307;28;97348;-66
2022/10/06 06:06:16;;;;;;;19.33;1.15;;;;;;;18.34;49.78;101948.22;5031535;28;97097;-66
2022/10/06 06:08:43;;;;;;;27.48;1.40;;;;;;;18.57;49.60;101957.84;5030147;28;99113;-66
2022/10/06 06:11:10;;;;;;;27.17;1.35;;;;;;;18.64;49.47;101973.47;5031841;28;99319;-68
2022/10/06 06:13:38;;;;;;;16.85;1.27;;;;;;;18.51;49.84;101958.94;5028884;27;97108;-66
2022/10/06 06:16:05;;;;;;;2.58;0.70;;;;;;;18.20;50.69;101980.09;5031279;28;96989;-66
2022/10/06 06:18:33;;;;;;;8.57;0.60;;;;;;;18.51;49.82;101991.06;5026558;27;98887;-66
2022/10/06 06:21:02;;;;;;;3.47;0.30;;;;;;;18.18;50.44;102008.75;5030726;28;98959;-67
2022/10/06 06:23:34;;;;;;;3.92;0.40;;;;;;;17.92;51.28;102005.47;5029870;28;97608;-67
2022/10/06 06:26:02;;;;;;;0.60;0.30;;;;;;;18.45;50.14;102018.13;5030818;28;96893;-67
2022/10/06 06:28:30;;;;;;;1.65;0.30;;;;;;;18.54;49.91;102009.66;5028522;28;99002;-65
2022/10/06 06:31:02;;;;;;;2.40;0.40;;;;;;;18.42;49.99;102018.28;5029050;27;99312;-67
2022/10/06 06:33:28;;;;;;;2.50;1.08;;;;;;;18.55;49.78;102031.94;5028672;27;96778;-66
2022/10/06 06:35:56;;;;;;;1.60;0.50;;;;;;;18.64;49.72;102027.03;5029111;28;97133;-66
2022/10/06 06:38:22;;;;;;;0.45;0.38;;;;;;;18.79;49.48;102040.59;5032995;28;99832;-67
2022/10/06 06:40:49;;;;;;;6.82;0.60;;;;;;;18.27;50.70;102045.75;5033773;28;99525;-66
2022/10/06 06:43:16;;;;;;;2.47;0.30;;;;;;;18.41;50.30;102047.78;5032447;28;97033;-67
2022/10/06 06:45:42;;;;;;;1.80;0.50;;;;;;;18.67;49.90;102053.66;5029015;27;97044;-66
2022/10/06 06:48:14;;;;;;;3.30;0.45;;;;;;;18.91;49.46;102058.75;5034473;27;98928;-67
2022/10/06 06:50:40;;;;;;;2.60;1.25;;;;;;;18.94;49.40;102063.97;5029748;28;98980;-67
2022/10/06 06:53:07;;;;;;;2.25;0.60;;;;;;;19.34;48.52;102077.09;5029826;28;97399;-68
2022/10/06 06:55:33;;;;;;;0.98;0.52;;;;;;;19.03;49.23;102075.06;5031588;28;97143;-67
2022/10/06 06:57:59;;;;;;;2.22;0.50;;;;;;;18.93;49.59;102081.84;5030105;28;99269;-67
2022/10/06 07:00:26;;;;;;;3.78;0.70;;;;;;;19.10;49.56;102083.69;5028707;27;99365;-66
2022/10/06 07:02:54;;;;;;;3.65;0.50;;;;;;;19.07;49.66;102084.72;5031652;27;97393;-67
2022/10/06 07:05:22;;;;;;;2.30;0.40;;;;;;;19.05;49.85;102088.41;5030790;28;96867;-66
2022/10/06 07:07:50;;;;;;;3.42;0.70;;;;;;;18.91;50.11;102096.25;5030405;27;102366;-67
2022/10/06 07:10:16;;;;;;;2.75;0.63;;;;;;;18.95;50.10;102103.22;5032515;28;99115;-68
2022/10/06 07:12:44;;;;;;;5.00;0.50;;;;;;;18.76;50.52;102113.06;5030824;28;96966;-67
2022/10/06 07:26:08;;;;;;;4.13;0.60;;;;;;;18.90;50.52;102146.28;5029304;28;97216;-66
2022/10/06 07:28:35;;;;;;;4.40;0.60;;;;;;;18.93;50.38;102142.56;5032108;27;99387;-67
2022/10/06 07:31:01;;;;;;;2.53;0.40;;;;;;;18.99;50.55;102153.00;5031365;28;99039;-67
2022/10/06 07:33:30;;;;;;;5.05;0.52;;;;;;;19.39;49.70;102159.94;5031271;28;97021;-66
2022/10/06 07:35:58;;;;;;;3.60;0.95;;;;;;;19.48;49.61;102155.03;5026805;28;98989;-69
2022/10/06 07:38:24;;;;;;;4.50;0.60;;;;;;;19.90;48.13;102153.75;5026878;28;99655;-66
2022/10/06 07:40:55;;;;;;;5.85;0.80;;;;;;;19.97;48.13;102155.19;5030696;27;99058;-67
2022/10/06 07:43:21;;;;;;;6.47;1.00;;;;;;;19.43;48.85;102166.88;5031705;28;96898;-67
2022/10/06 07:45:48;;;;;;;5.72;0.75;;;;;;;19.58;49.05;102170.63;5029160;27;97848;-68
2022/10/06 07:48:17;;;;;;;6.72;0.73;;;;;;;20.15;47.98;102178.34;5028337;28;100731;-66
2022/10/06 07:50:46;;;;;;;5.55;0.63;;;;;;;20.32;47.28;102173.91;5030081;28;99243;-67
2022/10/06 07:53:16;;;;;;;8.63;0.80;;;;;;;19.75;48.10;102176.03;5030341;28;97118;-67
2022/10/06 07:55:45;;;;;;;4.28;0.75;;;;;;;19.20;49.04;102185.91;5030638;28;97180;-67
2022/10/06 07:58:12;;;;;;;5.25;0.80;;;;;;;19.25;48.83;102176.69;5029450;28;99169;-67
2022/10/06 08:00:44;;;;;;;4.45;0.60;;;;;;;19.67;48.38;102186.28;5031229;28;99370;-67
2022/10/06 08:03:16;;;;;;;5.40;0.90;;;;;;;20.08;47.28;102187.69;5018322;27;97241;-67
2022/10/06 08:05:43;;;;;;;5.50;0.85;;;;;;;20.15;46.55;102189.09;5029999;28;97952;-66
2022/10/06 08:08:09;;;;;;;5.32;0.95;;;;;;;20.43;45.78;102195.72;5029550;28;98980;-67
2022/10/06 08:10:37;;;;;;;5.18;1.13;;;;;;;20.68;45.17;102212.22;5030426;28;99239;-67
2022/10/06 08:13:05;;;;;;;8.30;1.17;;;;;;;20.44;44.40;102211.75;5031183;28;97591;-67
2022/10/06 08:15:31;;;;;;;5.82;0.77;;;;;;;20.40;44.54;102212.00;5029897;27;97307;-68
2022/10/06 08:17:59;;;;;;;16.67;1.75;;;;;;;20.00;44.99;102216.75;5026487;28;99154;-67
2022/10/06 08:20:26;;;;;;;6.72;0.85;;;;;;;19.74;45.39;102219.88;5027624;28;98848;-67
2022/10/06 08:22:53;;;;;;;4.93;0.75;;;;;;;19.76;45.49;102224.19;5028407;28;96870;-67
2022/10/06 08:25:20;;;;;;;6.75;0.88;;;;;;;19.66;44.95;102225.63;5028597;28;96952;-66
2022/10/06 08:27:47;;;;;;;4.68;0.88;;;;;;;19.25;45.79;102237.47;5022950;28;99361;-67
2022/10/06 08:30:14;;;;;;;5.20;1.13;;;;;;;19.33;45.70;102246.03;5029759;27;98894;-66
2022/10/06 08:32:42;;;;;;;3.45;0.70;;;;;;;19.61;45.11;102245.56;5024532;28;96829;-68
2022/10/06 08:35:08;;;;;;;4.55;0.93;;;;;;;20.00;43.16;102256.97;5031416;27;96851;-66
2022/10/06 08:37:35;;;;;;;4.22;0.98;;;;;;;19.39;43.20;102251.06;5022548;28;99004;-67
2022/10/06 08:40:01;;;;;;;14.68;1.45;;;;;;;19.66;42.38;102260.50;5033645;27;98895;-67
2022/10/06 08:42:36;;;;;;;3.90;0.77;;;;;;;19.20;43.25;102275.22;5022614;27;97306;-67
2022/10/06 08:45:10;;;;;;;6.97;1.03;;;;;;;18.70;44.23;102277.56;5023310;27;97013;-67
2022/10/06 08:47:37;;;;;;;8.30;1.20;;;;;;;19.50;42.91;102281.81;5027189;28;101076;-70
2022/10/06 08:50:06;;;;;;;6.82;1.20;;;;;;;19.20;42.42;102277.91;5024693;28;99180;-67
2022/10/06 08:52:46;;;;;;;8.48;1.10;;;;;;;19.38;42.37;102285.06;5030449;28;97516;-66
2022/10/06 08:55:32;;;;;;;6.63;0.70;;;;;;;18.84;43.72;102291.19;5025610;28;97078;-66
2022/10/06 08:58:19;;;;;;;5.43;1.13;;;;;;;19.38;43.01;102292.22;5024568;28;99082;-67
2022/10/06 09:00:47;;;;;;;8.20;1.58;;;;;;;19.71;42.13;102297.78;5030791;28;98898;-67
2022/10/06 09:03:22;;;;;;;13.52;1.92;;;;;;;19.84;41.59;102294.44;5030015;28;96873;-67
2022/10/06 09:05:51;;;;;;;6.65;1.23;;;;;;;20.07;41.49;102295.97;5028187;27;97313;-67
2022/10/06 09:08:38;;;;;;;5.97;1.10;;;;;;;19.71;41.79;102293.31;5026356;28;98903;-67
2022/10/06 09:11:16;;;;;;;6.53;1.02;;;;;;;20.44;40.70;102296.78;5023647;28;98838;-67
2022/10/06 09:13:52;;;;;;;12.20;1.77;;;;;;;20.73;40.31;102301.50;5026642;28;97073;-68
2022/10/06 09:16:27;;;;;;;11.90;1.63;;;;;;;20.63;39.90;102310.97;5026354;28;97068;-66
2022/10/06 09:19:01;;;;;;;6.25;1.20;;;;;;;20.84;39.60;102317.91;5028485;28;99489;-67
2022/10/06 09:21:33;;;;;;;9.95;0.98;;;;;;;21.05;38.72;102315.88;5025891;28;98021;-68
2022/10/06 09:24:12;;;;;;;10.93;1.13;;;;;;;20.77;39.12;102316.50;5025347;28;97197;-67
2022/10/06 09:26:42;;;;;;;10.07;1.33;;;;;;;20.86;38.84;102325.88;5024224;28;97199;-67
2022/10/06 09:29:09;;;;;;;8.70;1.02;;;;;;;21.32;38.32;102318.91;5028998;28;99314;-68
2022/10/06 09:31:40;;;;;;;7.53;1.20;;;;;;;21.43;37.52;102322.72;5022619;28;98890;-67
2022/10/06 09:34:18;;;;;;;10.63;1.33;;;;;;;20.75;38.61;102321.06;5028563;28;97280;-66
2022/10/06 09:37:01;;;;;;;4.45;0.98;;;;;;;20.79;37.75;102336.09;5025936;28;97200;-69
2022/10/06 09:39:32;;;;;;;9.90;1.25;;;;;;;20.44;38.33;102323.63;5027064;27;99126;-68
2022/10/06 09:42:01;;;;;;;13.52;2.40;;;;;;;20.65;37.49;102335.94;5030262;28;98872;-67
2022/10/06 09:44:30;;;;;;;8.10;1.42;;;;;;;20.38;39.01;102345.44;5026893;28;97473;-66
2022/10/06 09:46:58;;;;;;;4.53;0.80;;;;;;;20.46;38.97;102333.34;5021656;28;96944;-66
2022/10/06 09:49:25;;;;;;;7.82;2.00;;;;;;;20.21;39.50;102341.78;5027140;27;99473;-66
2022/10/06 09:51:59;;;;;;;9.15;1.70;;;;;;;20.38;38.26;102345.44;5029313;28;98879;-67
2022/10/06 09:54:27;;;;;;;9.98;1.20;;;;;;;20.44;38.14;102339.75;5025383;28;96943;-67
2022/10/06 09:56:55;;;;;;;7.53;1.33;;;;;;;20.46;37.50;102351.28;5025055;28;97162;-73
2022/10/06 09:59:25;;;;;;;5.38;1.13;;;;;;;20.38;37.79;102356.16;5028288;28;98193;-73
2022/10/06 10:01:54;;;;;;;8.88;1.65;;;;;;;20.19;37.51;102356.19;5021707;27;98799;-67
2022/10/06 10:04:26;;;;;;;6.95;1.08;;;;;;;20.42;36.85;102347.00;5026764;27;97148;-67
2022/10/06 10:06:53;;;;;;;5.05;1.10;;;;;;;20.27;37.00;102352.19;5015760;28;97755;-67
2022/10/06 10:09:25;;;;;;;7.88;1.35;;;;;;;20.20;37.84;102358.81;5025167;28;99287;-70
2022/10/06 10:12:27;;;;;;;5.00;1.30;;;;;;;20.21;37.91;102375.78;5028897;27;99106;-67
2022/10/06 10:14:56;;;;;;;10.25;1.45;;;;;;;20.00;38.35;102361.63;5023643;28;96875;-66
2022/10/06 10:17:34;;;;;;;7.03;1.20;;;;;;;20.67;37.78;102364.47;5019047;28;97770;-67
2022/10/06 10:20:17;;;;;;;6.38;1.17;;;;;;;21.04;36.96;102363.38;5028313;27;99265;-66
2022/10/06 10:22:46;;;;;;;8.75;1.08;;;;;;;20.81;36.84;102371.78;5025607;28;99388;-67
2022/10/06 10:25:35;;;;;;;4.15;1.25;;;;;;;20.77;36.95;102364.84;5028234;28;97220;-67
2022/10/06 10:28:16;;;;;;;6.95;0.98;;;;;;;21.14;36.68;102379.00;5014474;27;98102;-65
2022/10/06 10:30:52;;;;;;;6.88;1.00;;;;;;;21.08;36.17;102373.00;5025594;27;99069;-67
2022/10/06 10:33:23;;;;;;;;;;;;;;;20.75;36.48;102385.53;5026169;28;98984;-66
2022/10/06 10:35:55;;;;;;;4.38;0.73;;;;;;;20.76;37.14;102391.78;5027544;28;97452;-68
2022/10/06 10:38:23;;;;;;;5.35;1.13;;;;;;;19.59;38.08;102381.53;5021012;28;97194;-66
2022/10/06 10:40:59;;;;;;;11.35;0.77;;;;;;;19.30;38.32;102386.38;5029044;28;100823;-67
2022/10/06 10:43:31;;;;;;;5.53;1.17;;;;;;;19.82;37.95;102381.31;5025793;28;98908;-67
2022/10/06 10:46:03;;;;;;;9.23;1.50;;;;;;;20.19;37.11;102375.88;5027795;27;97833;-67
2022/10/06 10:48:33;;;;;;;7.35;1.05;;;;;;;20.38;36.68;102377.66;5027687;27;97670;-66
2022/10/06 10:51:06;;;;;;;8.32;1.15;;;;;;;20.29;36.75;102390.53;5027463;27;98827;-67
2022/10/06 10:53:43;;;;;;;15.55;1.30;;;;;;;19.85;37.14;102402.59;5026801;28;101419;-67
2022/10/06 10:56:11;;;;;;;10.27;1.17;;;;;;;20.12;36.63;102400.38;5026152;28;97536;-67
2022/10/06 10:58:40;;;;;;;5.55;0.98;;;;;;;20.02;37.10;102399.97;5027446;28;96825;-66
2022/10/06 11:01:16;;;;;;;7.25;1.35;;;;;;;20.52;36.54;102389.44;5027883;28;98885;-66
2022/10/06 11:03:43;;;;;;;6.00;0.93;;;;;;;20.80;36.33;102399.63;5022510;28;99006;-66
2022/10/06 11:06:38;;;;;;;11.70;1.70;;;;;;;20.58;36.50;102401.66;5025191;28;96875;-66
2022/10/06 11:09:08;;;;;;;6.43;1.15;;;;;;;20.87;36.20;102402.84;5024310;28;97135;-67
2022/10/06 11:11:45;;;;;;;3.88;0.90;;;;;;;20.95;35.83;102398.78;5024463;28;99659;-67
2022/10/06 11:14:25;;;;;;;4.65;0.70;;;;;;;21.03;35.95;102404.63;5027258;28;99099;-67
2022/10/06 11:16:58;;;;;;;6.28;1.08;;;;;;;20.87;35.81;102400.16;5020773;28;97359;-66
2022/10/06 11:19:35;;;;;;;5.93;1.23;;;;;;;21.05;35.98;102400.06;5015369;28;97104;-67
2022/10/06 11:22:12;;;;;;;7.43;1.20;;;;;;;21.37;35.10;102408.25;5028581;28;99194;-67
2022/10/06 11:24:43;;;;;;;;;;;;;;;20.88;36.03;102416.19;5030898;28;99291;-65
2022/10/06 11:27:22;;;;;;;7.57;1.27;;;;;;;21.25;35.80;102408.91;5030534;28;98185;-69
2022/10/06 11:30:01;;;;;;;9.68;1.55;;;;;;;21.23;36.22;102413.50;5029541;28;97268;-69
2022/10/06 11:32:41;;;;;;;4.35;0.80;;;;;;;21.04;36.89;102417.13;5028110;28;99084;-65
2022/10/06 11:35:17;;;;;;;5.10;1.48;;;;;;;21.32;36.29;102418.38;5031796;28;99063;-65
2022/10/06 11:37:49;;;;;;;6.50;0.95;;;;;;;21.44;35.88;102420.41;5026379;28;98141;-66
2022/10/06 11:40:31;;;;;;;5.72;0.80;;;;;;;21.11;35.84;102408.75;5029764;28;97025;-67
2022/10/06 11:43:04;;;;;;;4.47;0.88;;;;;;;20.59;34.75;102414.16;5027791;28;98857;-67
2022/10/06 11:45:40;;;;;;;5.68;1.00;;;;;;;20.22;35.28;102425.81;5029100;28;98850;-67